sensor_id;sensor_type;location;lat;lon;timestamp;P1;durP1;ratioP1;P2;durP2;ratioP2
71771;SDS011;59606;52.138;5.424;2023-08-17T00:01:52;5.47;;;2.42;;
71771;SDS011;59606;52.138;5.424;2023-08-17T00:04:19;5.17;;;1.90;;
71771;SDS011;59606;52.138;5.424;2023-08-17T00:06:45;10.38;;;2.08;;
71771;SDS011;59606;52.138;5.424;2023-08-17T00:09:13;6.95;;;2.13;;
71771;SDS011;59606;52.138;5.424;2023-08-17T00:11:39;6.18;;;2.13;;
71771;SDS011;59606;52.138;5.424;2023-08-17T00:14:06;3.67;;;2.05;;
71771;SDS011;59606;52.138;5.424;2023-08-17T00:16:32;5.47;;;2.23;;
71771;SDS011;59606;52.138;5.424;2023-08-17T00:18:59;4.65;;;2.10;;
71771;SDS011;59606;52.138;5.424;2023-08-17T00:21:25;5.40;;;2.13;;
71771;SDS011;59606;52.138;5.424;2023-08-17T00:23:52;8.98;;;2.28;;
71771;SDS011;59606;52.138;5.424;2023-08-17T00:26:18;8.50;;;2.05;;
71771;SDS011;59606;52.138;5.424;2023-08-17T00:28:46;7.93;;;2.53;;
71771;SDS011;59606;52.138;5.424;2023-08-17T00:31:12;5.22;;;2.00;;
71771;SDS011;59606;52.138;5.424;2023-08-17T00:33:39;5.22;;;2.30;;
71771;SDS011;59606;52.138;5.424;2023-08-17T00:36:05;5.85;;;1.90;;
71771;SDS011;59606;52.138;5.424;2023-08-17T00:38:32;6.82;;;2.30;;
71771;SDS011;59606;52.138;5.424;2023-08-17T00:40:59;6.23;;;2.40;;
71771;SDS011;59606;52.138;5.424;2023-08-17T00:43:25;5.65;;;2.28;;
71771;SDS011;59606;52.138;5.424;2023-08-17T00:45:52;4.07;;;2.33;;
71771;SDS011;59606;52.138;5.424;2023-08-17T00:48:19;6.93;;;2.15;;
71771;SDS011;59606;52.138;5.424;2023-08-17T00:50:47;5.38;;;2.17;;
71771;SDS011;59606;52.138;5.424;2023-08-17T00:53:15;5.07;;;2.07;;
71771;SDS011;59606;52.138;5.424;2023-08-17T00:55:42;5.38;;;1.80;;
71771;SDS011;59606;52.138;5.424;2023-08-17T00:58:09;5.78;;;1.90;;
71771;SDS011;59606;52.138;5.424;2023-08-17T01:00:36;5.25;;;1.92;;
71771;SDS011;59606;52.138;5.424;2023-08-17T01:03:03;5.07;;;2.30;;
71771;SDS011;59606;52.138;5.424;2023-08-17T01:05:30;4.53;;;2.10;;
71771;SDS011;59606;52.138;5.424;2023-08-17T01:07:59;4.85;;;1.67;;
71771;SDS011;59606;52.138;5.424;2023-08-17T01:10:31;5.10;;;1.80;;
71771;SDS011;59606;52.138;5.424;2023-08-17T01:13:21;6.80;;;2.35;;
71771;SDS011;59606;52.138;5.424;2023-08-17T01:15:54;8.35;;;2.00;;
71771;SDS011;59606;52.138;5.424;2023-08-17T01:18:26;4.83;;;1.83;;
71771;SDS011;59606;52.138;5.424;2023-08-17T01:20:58;4.85;;;2.50;;
71771;SDS011;59606;52.138;5.424;2023-08-17T01:23:26;5.65;;;2.00;;
71771;SDS011;59606;52.138;5.424;2023-08-17T01:25:52;5.05;;;1.73;;
71771;SDS011;59606;52.138;5.424;2023-08-17T01:28:20;3.53;;;1.80;;
71771;SDS011;59606;52.138;5.424;2023-08-17T01:30:47;5.67;;;1.90;;
71771;SDS011;59606;52.138;5.424;2023-08-17T01:33:29;6.15;;;1.88;;
71771;SDS011;59606;52.138;5.424;2023-08-17T01:36:01;4.78;;;1.95;;
71771;SDS011;59606;52.138;5.424;2023-08-17T01:38:33;4.10;;;1.65;;
71771;SDS011;59606;52.138;5.424;2023-08-17T01:41:01;4.18;;;1.80;;
71771;SDS011;59606;52.138;5.424;2023-08-17T01:43:30;5.20;;;2.00;;
71771;SDS011;59606;52.138;5.424;2023-08-17T01:45:57;7.40;;;1.90;;
71771;SDS011;59606;52.138;5.424;2023-08-17T01:48:23;5.82;;;1.90;;
71771;SDS011;59606;52.138;5.424;2023-08-17T01:50:50;5.78;;;2.00;;
71771;SDS011;59606;52.138;5.424;2023-08-17T01:53:16;4.30;;;1.83;;
71771;SDS011;59606;52.138;5.424;2023-08-17T01:55:43;6.40;;;2.00;;
71771;SDS011;59606;52.138;5.424;2023-08-17T01:58:09;5.57;;;2.03;;
71771;SDS011;59606;52.138;5.424;2023-08-17T02:00:36;6.05;;;2.13;;
71771;SDS011;59606;52.138;5.424;2023-08-17T02:03:03;8.05;;;1.88;;
71771;SDS011;59606;52.138;5.424;2023-08-17T02:05:29;4.70;;;2.10;;
71771;SDS011;59606;52.138;5.424;2023-08-17T02:07:56;4.63;;;2.17;;
71771;SDS011;59606;52.138;5.424;2023-08-17T02:10:22;6.57;;;2.10;;
71771;SDS011;59606;52.138;5.424;2023-08-17T02:12:49;8.85;;;2.50;;
71771;SDS011;59606;52.138;5.424;2023-08-17T02:15:21;7.20;;;2.38;;
71771;SDS011;59606;52.138;5.424;2023-08-17T02:17:48;7.95;;;2.58;;
71771;SDS011;59606;52.138;5.424;2023-08-17T02:20:15;7.97;;;2.90;;
71771;SDS011;59606;52.138;5.424;2023-08-17T02:22:41;8.85;;;2.65;;
71771;SDS011;59606;52.138;5.424;2023-08-17T02:25:08;9.73;;;3.08;;
71771;SDS011;59606;52.138;5.424;2023-08-17T02:27:35;10.00;;;2.83;;
71771;SDS011;59606;52.138;5.424;2023-08-17T02:30:02;6.07;;;2.50;;
71771;SDS011;59606;52.138;5.424;2023-08-17T02:32:29;7.73;;;2.47;;
71771;SDS011;59606;52.138;5.424;2023-08-17T02:34:56;6.63;;;3.10;;
71771;SDS011;59606;52.138;5.424;2023-08-17T02:37:22;5.80;;;2.40;;
71771;SDS011;59606;52.138;5.424;2023-08-17T02:39:49;5.50;;;2.63;;
71771;SDS011;59606;52.138;5.424;2023-08-17T02:42:16;5.03;;;2.10;;
71771;SDS011;59606;52.138;5.424;2023-08-17T02:44:42;9.03;;;2.50;;
71771;SDS011;59606;52.138;5.424;2023-08-17T02:47:09;5.65;;;2.10;;
71771;SDS011;59606;52.138;5.424;2023-08-17T02:49:36;6.07;;;2.50;;
71771;SDS011;59606;52.138;5.424;2023-08-17T02:52:02;7.00;;;2.90;;
71771;SDS011;59606;52.138;5.424;2023-08-17T02:54:29;8.80;;;3.25;;
71771;SDS011;59606;52.138;5.424;2023-08-17T02:56:57;12.87;;;2.63;;
71771;SDS011;59606;52.138;5.424;2023-08-17T02:59:24;7.82;;;2.42;;
71771;SDS011;59606;52.138;5.424;2023-08-17T03:01:50;8.80;;;2.60;;
71771;SDS011;59606;52.138;5.424;2023-08-17T03:04:17;5.93;;;2.25;;
71771;SDS011;59606;52.138;5.424;2023-08-17T03:06:43;8.90;;;2.58;;
71771;SDS011;59606;52.138;5.424;2023-08-17T03:09:10;6.47;;;2.20;;
71771;SDS011;59606;52.138;5.424;2023-08-17T03:11:37;6.28;;;2.28;;
71771;SDS011;59606;52.138;5.424;2023-08-17T03:14:03;6.63;;;2.45;;
71771;SDS011;59606;52.138;5.424;2023-08-17T03:16:30;6.78;;;2.40;;
71771;SDS011;59606;52.138;5.424;2023-08-17T03:18:57;6.18;;;2.17;;
71771;SDS011;59606;52.138;5.424;2023-08-17T03:21:25;7.77;;;2.27;;
71771;SDS011;59606;52.138;5.424;2023-08-17T03:23:52;7.10;;;2.35;;
71771;SDS011;59606;52.138;5.424;2023-08-17T03:26:18;7.63;;;2.63;;
71771;SDS011;59606;52.138;5.424;2023-08-17T03:28:45;6.65;;;2.42;;
71771;SDS011;59606;52.138;5.424;2023-08-17T03:31:11;7.90;;;3.15;;
71771;SDS011;59606;52.138;5.424;2023-08-17T03:33:38;5.90;;;2.43;;
71771;SDS011;59606;52.138;5.424;2023-08-17T03:36:05;5.93;;;2.10;;
71771;SDS011;59606;52.138;5.424;2023-08-17T03:38:32;7.70;;;2.30;;
71771;SDS011;59606;52.138;5.424;2023-08-17T03:40:58;6.18;;;2.00;;
71771;SDS011;59606;52.138;5.424;2023-08-17T03:43:25;7.95;;;1.85;;
71771;SDS011;59606;52.138;5.424;2023-08-17T03:45:53;4.83;;;2.20;;
71771;SDS011;59606;52.138;5.424;2023-08-17T03:48:20;4.80;;;2.03;;
71771;SDS011;59606;52.138;5.424;2023-08-17T03:50:52;4.55;;;2.25;;
71771;SDS011;59606;52.138;5.424;2023-08-17T03:53:19;6.95;;;2.40;;
71771;SDS011;59606;52.138;5.424;2023-08-17T03:55:46;5.90;;;2.20;;
71771;SDS011;59606;52.138;5.424;2023-08-17T03:58:14;7.63;;;2.10;;
71771;SDS011;59606;52.138;5.424;2023-08-17T04:00:40;10.43;;;3.10;;
71771;SDS011;59606;52.138;5.424;2023-08-17T04:03:07;7.30;;;2.10;;
71771;SDS011;59606;52.138;5.424;2023-08-17T04:05:34;5.00;;;2.00;;
71771;SDS011;59606;52.138;5.424;2023-08-17T04:08:00;7.72;;;2.10;;
71771;SDS011;59606;52.138;5.424;2023-08-17T04:10:29;7.53;;;2.63;;
71771;SDS011;59606;52.138;5.424;2023-08-17T04:12:56;4.70;;;1.83;;
71771;SDS011;59606;52.138;5.424;2023-08-17T04:15:23;4.82;;;1.70;;
71771;SDS011;59606;52.138;5.424;2023-08-17T04:17:49;5.88;;;1.70;;
71771;SDS011;59606;52.138;5.424;2023-08-17T04:20:16;7.22;;;1.80;;
71771;SDS011;59606;52.138;5.424;2023-08-17T04:22:44;7.10;;;1.77;;
71771;SDS011;59606;52.138;5.424;2023-08-17T04:25:11;4.55;;;2.00;;
71771;SDS011;59606;52.138;5.424;2023-08-17T04:27:39;5.00;;;1.85;;
71771;SDS011;59606;52.138;5.424;2023-08-17T04:30:06;8.40;;;2.03;;
71771;SDS011;59606;52.138;5.424;2023-08-17T04:32:33;5.80;;;1.85;;
71771;SDS011;59606;52.138;5.424;2023-08-17T04:34:59;5.50;;;1.73;;
71771;SDS011;59606;52.138;5.424;2023-08-17T04:37:26;5.03;;;1.33;;
71771;SDS011;59606;52.138;5.424;2023-08-17T04:39:53;4.30;;;1.33;;
71771;SDS011;59606;52.138;5.424;2023-08-17T04:42:20;6.43;;;1.50;;
71771;SDS011;59606;52.138;5.424;2023-08-17T04:44:46;8.75;;;2.03;;
71771;SDS011;59606;52.138;5.424;2023-08-17T04:47:13;2.30;;;1.43;;
71771;SDS011;59606;52.138;5.424;2023-08-17T04:49:40;6.07;;;1.48;;
71771;SDS011;59606;52.138;5.424;2023-08-17T04:52:06;2.92;;;1.20;;
71771;SDS011;59606;52.138;5.424;2023-08-17T04:54:33;6.18;;;1.40;;
71771;SDS011;59606;52.138;5.424;2023-08-17T04:57:00;3.53;;;1.80;;
71771;SDS011;59606;52.138;5.424;2023-08-17T04:59:26;4.70;;;1.33;;
71771;SDS011;59606;52.138;5.424;2023-08-17T05:01:53;3.35;;;1.17;;
71771;SDS011;59606;52.138;5.424;2023-08-17T05:04:20;5.57;;;1.45;;
71771;SDS011;59606;52.138;5.424;2023-08-17T05:06:47;7.07;;;1.77;;
71771;SDS011;59606;52.138;5.424;2023-08-17T05:09:13;6.57;;;2.03;;
71771;SDS011;59606;52.138;5.424;2023-08-17T05:11:40;4.30;;;1.20;;
71771;SDS011;59606;52.138;5.424;2023-08-17T05:14:06;3.33;;;1.60;;
71771;SDS011;59606;52.138;5.424;2023-08-17T05:16:33;4.93;;;1.50;;
71771;SDS011;59606;52.138;5.424;2023-08-17T05:18:59;3.53;;;1.40;;
71771;SDS011;59606;52.138;5.424;2023-08-17T05:21:26;5.05;;;1.38;;
71771;SDS011;59606;52.138;5.424;2023-08-17T05:23:52;6.00;;;1.50;;
71771;SDS011;59606;52.138;5.424;2023-08-17T05:26:20;3.22;;;1.08;;
71771;SDS011;59606;52.138;5.424;2023-08-17T05:28:47;4.20;;;2.08;;
71771;SDS011;59606;52.138;5.424;2023-08-17T05:31:14;6.00;;;1.48;;
71771;SDS011;59606;52.138;5.424;2023-08-17T05:33:40;4.47;;;1.35;;
71771;SDS011;59606;52.138;5.424;2023-08-17T05:36:07;4.93;;;1.57;;
71771;SDS011;59606;52.138;5.424;2023-08-17T05:38:34;5.25;;;1.38;;
71771;SDS011;59606;52.138;5.424;2023-08-17T05:41:01;4.93;;;1.60;;
71771;SDS011;59606;52.138;5.424;2023-08-17T05:43:28;4.82;;;1.55;;
71771;SDS011;59606;52.138;5.424;2023-08-17T05:45:56;6.40;;;2.00;;
71771;SDS011;59606;52.138;5.424;2023-08-17T05:48:24;3.77;;;1.33;;
71771;SDS011;59606;52.138;5.424;2023-08-17T05:50:51;4.63;;;1.48;;
71771;SDS011;59606;52.138;5.424;2023-08-17T05:53:18;5.55;;;1.70;;
71771;SDS011;59606;52.138;5.424;2023-08-17T05:55:44;8.45;;;1.80;;
71771;SDS011;59606;52.138;5.424;2023-08-17T05:58:11;9.40;;;1.65;;
71771;SDS011;59606;52.138;5.424;2023-08-17T06:00:37;6.50;;;1.60;;
71771;SDS011;59606;52.138;5.424;2023-08-17T06:03:04;3.72;;;1.48;;
71771;SDS011;59606;52.138;5.424;2023-08-17T06:05:31;4.05;;;1.73;;
71771;SDS011;59606;52.138;5.424;2023-08-17T06:07:57;4.18;;;1.58;;
71771;SDS011;59606;52.138;5.424;2023-08-17T06:10:24;3.78;;;1.40;;
71771;SDS011;59606;52.138;5.424;2023-08-17T06:12:54;7.83;;;1.90;;
71771;SDS011;59606;52.138;5.424;2023-08-17T06:15:22;4.07;;;2.05;;
71771;SDS011;59606;52.138;5.424;2023-08-17T06:17:49;4.75;;;1.88;;
71771;SDS011;59606;52.138;5.424;2023-08-17T06:20:18;8.65;;;1.95;;
71771;SDS011;59606;52.138;5.424;2023-08-17T06:22:47;2.72;;;1.50;;
71771;SDS011;59606;52.138;5.424;2023-08-17T06:25:13;4.77;;;1.70;;
71771;SDS011;59606;52.138;5.424;2023-08-17T06:27:41;8.07;;;1.90;;
71771;SDS011;59606;52.138;5.424;2023-08-17T06:30:08;7.55;;;1.85;;
71771;SDS011;59606;52.138;5.424;2023-08-17T06:32:35;4.85;;;1.73;;
71771;SDS011;59606;52.138;5.424;2023-08-17T06:35:02;3.30;;;1.90;;
71771;SDS011;59606;52.138;5.424;2023-08-17T06:37:29;9.10;;;1.87;;
71771;SDS011;59606;52.138;5.424;2023-08-17T06:39:56;3.33;;;1.65;;
71771;SDS011;59606;52.138;5.424;2023-08-17T06:42:22;4.13;;;1.80;;
71771;SDS011;59606;52.138;5.424;2023-08-17T06:44:49;6.55;;;2.30;;
71771;SDS011;59606;52.138;5.424;2023-08-17T06:47:15;4.07;;;1.98;;
71771;SDS011;59606;52.138;5.424;2023-08-17T06:49:42;4.43;;;1.83;;
71771;SDS011;59606;52.138;5.424;2023-08-17T06:52:08;5.35;;;1.60;;
71771;SDS011;59606;52.138;5.424;2023-08-17T06:54:35;4.85;;;1.80;;
71771;SDS011;59606;52.138;5.424;2023-08-17T06:57:01;6.25;;;1.70;;
71771;SDS011;59606;52.138;5.424;2023-08-17T06:59:28;8.55;;;2.42;;
71771;SDS011;59606;52.138;5.424;2023-08-17T07:01:55;4.87;;;1.73;;
71771;SDS011;59606;52.138;5.424;2023-08-17T07:04:23;6.03;;;1.67;;
71771;SDS011;59606;52.138;5.424;2023-08-17T07:06:49;4.57;;;1.70;;
71771;SDS011;59606;52.138;5.424;2023-08-17T07:09:16;8.48;;;1.65;;
71771;SDS011;59606;52.138;5.424;2023-08-17T07:11:42;6.60;;;1.92;;
71771;SDS011;59606;52.138;5.424;2023-08-17T07:14:09;8.47;;;1.90;;
71771;SDS011;59606;52.138;5.424;2023-08-17T07:16:36;6.30;;;1.95;;
71771;SDS011;59606;52.138;5.424;2023-08-17T07:19:02;7.60;;;1.58;;
71771;SDS011;59606;52.138;5.424;2023-08-17T07:21:29;8.60;;;1.63;;
71771;SDS011;59606;52.138;5.424;2023-08-17T07:23:55;4.13;;;1.40;;
71771;SDS011;59606;52.138;5.424;2023-08-17T07:26:22;2.97;;;1.47;;
71771;SDS011;59606;52.138;5.424;2023-08-17T07:28:49;6.15;;;1.88;;
71771;SDS011;59606;52.138;5.424;2023-08-17T07:31:15;4.15;;;2.22;;
71771;SDS011;59606;52.138;5.424;2023-08-17T07:33:42;4.53;;;1.65;;
71771;SDS011;59606;52.138;5.424;2023-08-17T07:36:08;4.43;;;1.77;;
71771;SDS011;59606;52.138;5.424;2023-08-17T07:38:35;4.97;;;1.70;;
71771;SDS011;59606;52.138;5.424;2023-08-17T07:41:02;5.35;;;1.83;;
71771;SDS011;59606;52.138;5.424;2023-08-17T07:43:29;6.65;;;2.47;;
71771;SDS011;59606;52.138;5.424;2023-08-17T07:45:56;6.07;;;2.03;;
71771;SDS011;59606;52.138;5.424;2023-08-17T07:48:23;7.35;;;1.98;;
71771;SDS011;59606;52.138;5.424;2023-08-17T07:50:52;4.37;;;1.50;;
71771;SDS011;59606;52.138;5.424;2023-08-17T07:53:19;3.50;;;1.55;;
71771;SDS011;59606;52.138;5.424;2023-08-17T07:55:46;6.35;;;1.80;;
71771;SDS011;59606;52.138;5.424;2023-08-17T07:58:15;5.40;;;1.80;;
71771;SDS011;59606;52.138;5.424;2023-08-17T08:00:41;5.25;;;2.40;;
71771;SDS011;59606;52.138;5.424;2023-08-17T08:03:08;7.37;;;2.60;;
71771;SDS011;59606;52.138;5.424;2023-08-17T08:05:35;7.35;;;2.10;;
71771;SDS011;59606;52.138;5.424;2023-08-17T08:08:01;5.60;;;1.42;;
71771;SDS011;59606;52.138;5.424;2023-08-17T08:10:28;6.45;;;1.83;;
71771;SDS011;59606;52.138;5.424;2023-08-17T08:12:54;5.30;;;1.52;;
71771;SDS011;59606;52.138;5.424;2023-08-17T08:15:21;4.00;;;1.73;;
71771;SDS011;59606;52.138;5.424;2023-08-17T08:17:48;3.97;;;1.17;;
71771;SDS011;59606;52.138;5.424;2023-08-17T08:20:15;6.22;;;1.90;;
71771;SDS011;59606;52.138;5.424;2023-08-17T08:22:41;7.00;;;1.55;;
71771;SDS011;59606;52.138;5.424;2023-08-17T08:25:08;3.92;;;1.30;;
71771;SDS011;59606;52.138;5.424;2023-08-17T08:27:34;6.43;;;1.60;;
71771;SDS011;59606;52.138;5.424;2023-08-17T08:30:01;4.82;;;1.40;;
71771;SDS011;59606;52.138;5.424;2023-08-17T08:32:28;4.60;;;1.90;;
71771;SDS011;59606;52.138;5.424;2023-08-17T08:34:56;6.15;;;2.17;;
71771;SDS011;59606;52.138;5.424;2023-08-17T08:37:22;6.07;;;1.98;;
71771;SDS011;59606;52.138;5.424;2023-08-17T08:39:52;4.83;;;1.70;;
71771;SDS011;59606;52.138;5.424;2023-08-17T08:42:20;2.95;;;1.35;;
71771;SDS011;59606;52.138;5.424;2023-08-17T08:44:49;7.10;;;1.73;;
71771;SDS011;59606;52.138;5.424;2023-08-17T08:47:16;8.63;;;1.83;;
71771;SDS011;59606;52.138;5.424;2023-08-17T08:49:50;3.83;;;1.50;;
71771;SDS011;59606;52.138;5.424;2023-08-17T08:52:34;2.40;;;1.30;;
71771;SDS011;59606;52.138;5.424;2023-08-17T08:55:03;3.95;;;1.80;;
71771;SDS011;59606;52.138;5.424;2023-08-17T08:57:37;7.63;;;2.20;;
71771;SDS011;59606;52.138;5.424;2023-08-17T09:00:05;5.55;;;1.50;;
71771;SDS011;59606;52.138;5.424;2023-08-17T09:02:33;5.25;;;1.60;;
71771;SDS011;59606;52.138;5.424;2023-08-17T09:05:01;5.40;;;1.50;;
71771;SDS011;59606;52.138;5.424;2023-08-17T09:07:29;4.78;;;1.60;;
71771;SDS011;59606;52.138;5.424;2023-08-17T09:09:57;5.55;;;1.88;;
71771;SDS011;59606;52.138;5.424;2023-08-17T09:12:24;4.75;;;1.45;;
71771;SDS011;59606;52.138;5.424;2023-08-17T09:15:05;6.78;;;1.70;;
71771;SDS011;59606;52.138;5.424;2023-08-17T09:17:32;2.13;;;1.43;;
71771;SDS011;59606;52.138;5.424;2023-08-17T09:20:00;4.47;;;1.67;;
71771;SDS011;59606;52.138;5.424;2023-08-17T09:22:42;8.02;;;1.63;;
71771;SDS011;59606;52.138;5.424;2023-08-17T09:25:10;5.63;;;1.52;;
71771;SDS011;59606;52.138;5.424;2023-08-17T09:27:37;5.90;;;1.70;;
71771;SDS011;59606;52.138;5.424;2023-08-17T09:30:05;4.50;;;1.37;;
71771;SDS011;59606;52.138;5.424;2023-08-17T09:32:33;3.95;;;1.50;;
71771;SDS011;59606;52.138;5.424;2023-08-17T09:35:01;4.63;;;1.70;;
71771;SDS011;59606;52.138;5.424;2023-08-17T09:37:28;5.63;;;2.33;;
71771;SDS011;59606;52.138;5.424;2023-08-17T09:39:55;6.97;;;2.13;;
71771;SDS011;59606;52.138;5.424;2023-08-17T09:42:21;8.20;;;2.13;;
71771;SDS011;59606;52.138;5.424;2023-08-17T09:44:49;4.05;;;1.60;;
71771;SDS011;59606;52.138;5.424;2023-08-17T09:47:16;5.30;;;1.85;;
71771;SDS011;59606;52.138;5.424;2023-08-17T09:49:48;10.55;;;2.08;;
71771;SDS011;59606;52.138;5.424;2023-08-17T09:52:15;6.65;;;2.20;;
71771;SDS011;59606;52.138;5.424;2023-08-17T09:54:42;11.20;;;2.53;;
71771;SDS011;59606;52.138;5.424;2023-08-17T09:57:09;6.97;;;1.65;;
71771;SDS011;59606;52.138;5.424;2023-08-17T09:59:36;7.22;;;2.75;;
71771;SDS011;59606;52.138;5.424;2023-08-17T10:02:08;8.75;;;2.20;;
71771;SDS011;59606;52.138;5.424;2023-08-17T10:04:49;5.15;;;2.00;;
71771;SDS011;59606;52.138;5.424;2023-08-17T10:07:18;4.57;;;2.00;;
71771;SDS011;59606;52.138;5.424;2023-08-17T10:09:49;5.75;;;2.08;;
71771;SDS011;59606;52.138;5.424;2023-08-17T10:12:23;6.85;;;2.20;;
71771;SDS011;59606;52.138;5.424;2023-08-17T10:14:55;9.15;;;2.53;;
71771;SDS011;59606;52.138;5.424;2023-08-17T10:17:35;7.43;;;2.10;;
71771;SDS011;59606;52.138;5.424;2023-08-17T10:20:24;7.53;;;2.20;;
71771;SDS011;59606;52.138;5.424;2023-08-17T10:25:34;7.90;;;2.20;;
71771;SDS011;59606;52.138;5.424;2023-08-17T10:28:01;6.15;;;2.13;;
71771;SDS011;59606;52.138;5.424;2023-08-17T10:30:30;6.38;;;2.20;;
71771;SDS011;59606;52.138;5.424;2023-08-17T10:32:56;9.47;;;2.20;;
71771;SDS011;59606;52.138;5.424;2023-08-17T10:35:23;6.45;;;1.80;;
71771;SDS011;59606;52.138;5.424;2023-08-17T10:37:50;7.03;;;2.00;;
71771;SDS011;59606;52.138;5.424;2023-08-17T10:40:17;6.00;;;2.10;;
71771;SDS011;59606;52.138;5.424;2023-08-17T10:42:54;5.47;;;1.88;;
71771;SDS011;59606;52.138;5.424;2023-08-17T10:45:29;6.43;;;1.80;;
71771;SDS011;59606;52.138;5.424;2023-08-17T10:50:37;6.18;;;2.15;;
71771;SDS011;59606;52.138;5.424;2023-08-17T10:53:08;6.45;;;2.30;;
71771;SDS011;59606;52.138;5.424;2023-08-17T10:55:37;8.05;;;2.33;;
71771;SDS011;59606;52.138;5.424;2023-08-17T10:58:06;6.23;;;2.10;;
71771;SDS011;59606;52.138;5.424;2023-08-17T11:00:40;7.55;;;2.00;;
71771;SDS011;59606;52.138;5.424;2023-08-17T11:03:10;6.90;;;2.20;;
71771;SDS011;59606;52.138;5.424;2023-08-17T11:05:47;5.53;;;2.20;;
71771;SDS011;59606;52.138;5.424;2023-08-17T11:08:23;6.47;;;2.00;;
71771;SDS011;59606;52.138;5.424;2023-08-17T11:13:44;8.18;;;2.60;;
71771;SDS011;59606;52.138;5.424;2023-08-17T11:16:12;5.97;;;1.85;;
71771;SDS011;59606;52.138;5.424;2023-08-17T11:18:44;7.75;;;2.67;;
71771;SDS011;59606;52.138;5.424;2023-08-17T11:21:11;7.90;;;2.17;;
71771;SDS011;59606;52.138;5.424;2023-08-17T11:23:44;10.47;;;2.70;;
71771;SDS011;59606;52.138;5.424;2023-08-17T11:26:11;6.10;;;2.60;;
71771;SDS011;59606;52.138;5.424;2023-08-17T11:28:38;5.68;;;2.60;;
71771;SDS011;59606;52.138;5.424;2023-08-17T11:31:09;7.57;;;2.60;;
71771;SDS011;59606;52.138;5.424;2023-08-17T11:33:38;7.80;;;2.60;;
71771;SDS011;59606;52.138;5.424;2023-08-17T11:36:06;7.20;;;3.27;;
71771;SDS011;59606;52.138;5.424;2023-08-17T11:38:38;8.77;;;2.25;;
71771;SDS011;59606;52.138;5.424;2023-08-17T11:41:06;8.20;;;2.92;;
71771;SDS011;59606;52.138;5.424;2023-08-17T11:43:35;12.30;;;3.25;;
71771;SDS011;59606;52.138;5.424;2023-08-17T11:46:03;7.03;;;2.10;;
71771;SDS011;59606;52.138;5.424;2023-08-17T11:48:30;6.87;;;3.10;;
71771;SDS011;59606;52.138;5.424;2023-08-17T11:51:02;5.93;;;2.47;;
71771;SDS011;59606;52.138;5.424;2023-08-17T11:53:34;7.88;;;2.30;;
71771;SDS011;59606;52.138;5.424;2023-08-17T11:56:01;6.70;;;2.10;;
71771;SDS011;59606;52.138;5.424;2023-08-17T11:58:40;5.97;;;2.53;;
71771;SDS011;59606;52.138;5.424;2023-08-17T12:01:08;5.23;;;2.27;;
71771;SDS011;59606;52.138;5.424;2023-08-17T12:03:36;8.50;;;2.70;;
71771;SDS011;59606;52.138;5.424;2023-08-17T12:06:04;8.10;;;2.70;;
71771;SDS011;59606;52.138;5.424;2023-08-17T12:08:30;9.18;;;3.10;;
71771;SDS011;59606;52.138;5.424;2023-08-17T12:10:57;5.47;;;2.45;;
71771;SDS011;59606;52.138;5.424;2023-08-17T12:13:30;7.90;;;2.33;;
71771;SDS011;59606;52.138;5.424;2023-08-17T12:15:59;7.68;;;2.78;;
71771;SDS011;59606;52.138;5.424;2023-08-17T12:18:26;5.25;;;2.20;;
71771;SDS011;59606;52.138;5.424;2023-08-17T12:20:53;10.30;;;2.95;;
71771;SDS011;59606;52.138;5.424;2023-08-17T12:23:20;6.90;;;3.28;;
71771;SDS011;59606;52.138;5.424;2023-08-17T12:25:51;5.87;;;2.43;;
71771;SDS011;59606;52.138;5.424;2023-08-17T12:28:19;9.50;;;2.83;;
71771;SDS011;59606;52.138;5.424;2023-08-17T12:30:45;8.82;;;3.22;;
71771;SDS011;59606;52.138;5.424;2023-08-17T12:33:12;6.60;;;2.53;;
71771;SDS011;59606;52.138;5.424;2023-08-17T12:35:38;4.80;;;2.25;;
71771;SDS011;59606;52.138;5.424;2023-08-17T12:38:05;9.23;;;2.70;;
71771;SDS011;59606;52.138;5.424;2023-08-17T12:40:32;6.45;;;2.40;;
71771;SDS011;59606;52.138;5.424;2023-08-17T12:42:59;6.10;;;2.42;;
71771;SDS011;59606;52.138;5.424;2023-08-17T12:45:25;4.80;;;2.45;;
71771;SDS011;59606;52.138;5.424;2023-08-17T12:47:53;5.57;;;2.20;;
71771;SDS011;59606;52.138;5.424;2023-08-17T12:50:20;6.70;;;2.50;;
71771;SDS011;59606;52.138;5.424;2023-08-17T12:52:47;6.40;;;2.33;;
71771;SDS011;59606;52.138;5.424;2023-08-17T12:55:13;11.30;;;2.20;;
71771;SDS011;59606;52.138;5.424;2023-08-17T12:57:40;5.40;;;2.20;;
71771;SDS011;59606;52.138;5.424;2023-08-17T13:00:07;4.88;;;2.28;;
71771;SDS011;59606;52.138;5.424;2023-08-17T13:02:35;4.53;;;2.00;;
71771;SDS011;59606;52.138;5.424;2023-08-17T13:05:01;4.90;;;2.35;;
71771;SDS011;59606;52.138;5.424;2023-08-17T13:07:29;7.75;;;3.22;;
71771;SDS011;59606;52.138;5.424;2023-08-17T13:09:55;5.30;;;2.33;;
71771;SDS011;59606;52.138;5.424;2023-08-17T13:12:22;7.15;;;2.80;;
71771;SDS011;59606;52.138;5.424;2023-08-17T13:14:48;6.30;;;2.40;;
71771;SDS011;59606;52.138;5.424;2023-08-17T13:17:15;8.48;;;2.60;;
71771;SDS011;59606;52.138;5.424;2023-08-17T13:19:43;5.53;;;2.58;;
71771;SDS011;59606;52.138;5.424;2023-08-17T13:22:10;7.65;;;2.40;;
71771;SDS011;59606;52.138;5.424;2023-08-17T13:24:36;6.90;;;2.50;;
71771;SDS011;59606;52.138;5.424;2023-08-17T13:27:04;4.33;;;2.60;;
71771;SDS011;59606;52.138;5.424;2023-08-17T13:29:31;5.57;;;2.70;;
71771;SDS011;59606;52.138;5.424;2023-08-17T13:31:57;7.75;;;3.28;;
71771;SDS011;59606;52.138;5.424;2023-08-17T13:34:24;5.75;;;2.45;;
71771;SDS011;59606;52.138;5.424;2023-08-17T13:36:50;5.55;;;2.55;;
71771;SDS011;59606;52.138;5.424;2023-08-17T13:39:17;5.23;;;2.67;;
71771;SDS011;59606;52.138;5.424;2023-08-17T13:41:43;7.40;;;3.13;;
71771;SDS011;59606;52.138;5.424;2023-08-17T13:44:10;9.20;;;3.10;;
71771;SDS011;59606;52.138;5.424;2023-08-17T13:46:36;4.95;;;2.63;;
71771;SDS011;59606;52.138;5.424;2023-08-17T13:49:03;5.13;;;2.60;;
71771;SDS011;59606;52.138;5.424;2023-08-17T13:51:30;5.10;;;2.40;;
71771;SDS011;59606;52.138;5.424;2023-08-17T13:53:57;5.00;;;2.42;;
71771;SDS011;59606;52.138;5.424;2023-08-17T13:56:23;5.43;;;2.67;;
71771;SDS011;59606;52.138;5.424;2023-08-17T13:58:52;4.88;;;2.72;;
71771;SDS011;59606;52.138;5.424;2023-08-17T14:01:19;4.32;;;2.70;;
71771;SDS011;59606;52.138;5.424;2023-08-17T14:03:46;5.13;;;2.47;;
71771;SDS011;59606;52.138;5.424;2023-08-17T14:06:12;5.88;;;2.60;;
71771;SDS011;59606;52.138;5.424;2023-08-17T14:08:39;4.50;;;2.38;;
71771;SDS011;59606;52.138;5.424;2023-08-17T14:11:05;6.88;;;2.58;;
71771;SDS011;59606;52.138;5.424;2023-08-17T14:13:33;4.32;;;2.50;;
71771;SDS011;59606;52.138;5.424;2023-08-17T14:16:00;4.20;;;2.80;;
71771;SDS011;59606;52.138;5.424;2023-08-17T14:18:27;5.68;;;2.33;;
71771;SDS011;59606;52.138;5.424;2023-08-17T14:20:53;4.70;;;2.40;;
71771;SDS011;59606;52.138;5.424;2023-08-17T14:23:20;4.72;;;2.88;;
71771;SDS011;59606;52.138;5.424;2023-08-17T14:25:46;7.15;;;2.60;;
71771;SDS011;59606;52.138;5.424;2023-08-17T14:28:13;4.43;;;2.20;;
71771;SDS011;59606;52.138;5.424;2023-08-17T14:30:39;7.53;;;3.30;;
71771;SDS011;59606;52.138;5.424;2023-08-17T14:33:06;7.32;;;2.90;;
71771;SDS011;59606;52.138;5.424;2023-08-17T14:35:32;5.57;;;3.15;;
71771;SDS011;59606;52.138;5.424;2023-08-17T14:37:59;7.10;;;3.15;;
71771;SDS011;59606;52.138;5.424;2023-08-17T14:40:27;6.43;;;2.70;;
71771;SDS011;59606;52.138;5.424;2023-08-17T14:42:53;6.18;;;3.20;;
71771;SDS011;59606;52.138;5.424;2023-08-17T14:45:20;8.38;;;4.13;;
71771;SDS011;59606;52.138;5.424;2023-08-17T14:47:47;6.72;;;3.33;;
71771;SDS011;59606;52.138;5.424;2023-08-17T14:50:14;8.68;;;3.55;;
71771;SDS011;59606;52.138;5.424;2023-08-17T14:52:40;6.63;;;3.63;;
71771;SDS011;59606;52.138;5.424;2023-08-17T14:55:07;6.50;;;3.65;;
71771;SDS011;59606;52.138;5.424;2023-08-17T14:57:35;7.22;;;3.35;;
71771;SDS011;59606;52.138;5.424;2023-08-17T15:00:02;7.78;;;3.28;;